Time;durP1;ratioP1;P1;durP2;ratioP2;P2;SDS_P1;SDS_P2;PMS_P1;PMS_P2;Temp;Humidity;BMP_temperature;BMP_pressure;BME280_temperature;BME280_humidity;BME280_pressure;Samples;Min_cycle;Max_cycle;Signal;HPM_P1;HPM_P2
2022/01/09 00:01:25;;;;;;;24.50;10.32;;;;;;;-0.35;100.00;99296.63;4925825;28;20029;-86
2022/01/09 00:03:51;;;;;;;19.90;9.15;;;1.50;99.90;;;-0.40;100.00;99298.50;4910535;28;20024;-87
2022/01/09 00:06:26;;;;;;;18.17;9.18;;;;;;;-0.40;100.00;99295.06;4907448;28;20122;-85
2022/01/09 00:08:52;;;;;;;22.70;9.82;;;1.50;99.90;;;-0.40;100.00;99290.75;4932585;28;20045;-85
2022/01/09 00:11:26;;;;;;;28.38;10.18;;;1.50;99.90;;;-0.42;100.00;99293.34;4934361;23;20412;-87
2022/01/09 00:13:56;;;;;;;21.58;9.70;;;;;;;-0.42;100.00;99295.09;4901546;28;20034;-87
2022/01/09 00:16:23;;;;;;;22.02;9.80;;;1.50;99.90;;;-0.44;100.00;99287.38;4927637;28;20125;-88
2022/01/09 00:18:59;;;;;;;23.00;9.85;;;1.40;99.90;;;-0.49;100.00;99278.03;4890537;28;20030;-85
2022/01/09 00:21:25;;;;;;;18.08;8.93;;;;;;;-0.53;100.00;99284.19;4922130;28;21027;-85
2022/01/09 00:23:52;;;;;;;18.75;8.90;;;;;;;-0.58;100.00;99280.84;4892951;28;20531;-86
2022/01/09 00:26:27;;;;;;;24.58;9.15;;;1.30;99.90;;;-0.63;100.00;99271.47;4914228;28;20397;-86
2022/01/09 00:28:54;;;;;;;15.63;8.90;;;;;;;-0.63;100.00;99261.16;4955782;28;20091;-84
2022/01/09 00:31:20;;;;;;;18.58;8.27;;;;;;;-0.64;100.00;99266.34;4982942;28;20329;-86
2022/01/09 00:34:13;;;;;;;23.35;8.77;;;;;;;-0.67;100.00;99264.69;4930732;28;20129;-86
2022/01/09 00:37:29;;;;;;;16.70;7.60;;;1.30;99.90;;;-0.69;100.00;99261.28;4958617;28;20044;-86
2022/01/09 00:40:35;;;;;;;23.27;9.05;;;;;;;-0.75;100.00;99258.84;4952991;28;20037;-86
2022/01/09 00:43:30;;;;;;;14.55;7.65;;;;;;;-0.79;100.00;99262.38;4964314;28;20040;-86
2022/01/09 00:46:00;;;;;;;20.93;8.90;;;;;;;-0.80;100.00;99254.66;4863727;28;20031;-87
2022/01/09 00:48:37;;;;;;;18.63;8.85;;;;;;;-0.86;100.00;99253.94;4999172;28;20099;-87
2022/01/09 00:51:14;;;;;;;20.15;9.10;;;1.10;99.90;;;-0.90;100.00;99251.47;4956271;28;20036;-87
2022/01/09 00:54:16;;;;;;;21.95;8.68;;;;;;;-0.93;100.00;99251.50;4919351;28;20121;-86
2022/01/09 00:57:22;;;;;;;18.38;8.18;;;1.00;99.90;;;-0.98;100.00;99243.88;4908277;28;20022;-87
2022/01/09 01:00:03;;;;;;;21.67;9.73;;;;;;;-0.99;100.00;99241.31;4904099;28;22707;-88
2022/01/09 01:02:49;;;;;;;23.15;10.07;;;0.90;99.90;;;-1.05;100.00;99239.75;4943288;28;20044;-88
2022/01/09 01:05:23;;;;;;;28.08;9.30;;;;;;;-1.06;100.00;99225.09;4931070;28;20537;-88
2022/01/09 01:07:49;;;;;;;21.55;9.57;;;0.90;99.90;;;-1.13;100.00;99241.63;4916878;28;20033;-87
2022/01/09 01:10:15;;;;;;;23.23;10.38;;;;;;;-1.15;100.00;99238.25;4950821;28;20389;-86
2022/01/09 01:12:51;;;;;;;20.52;9.30;;;;;;;-1.15;100.00;99239.09;4926088;28;20706;-87
2022/01/09 01:15:17;;;;;;;17.55;8.68;;;0.80;99.90;;;-1.20;100.00;99235.78;4910329;28;20051;-88
2022/01/09 01:17:43;;;;;;;20.05;9.63;;;0.80;99.90;;;-1.22;100.00;99240.13;4932594;28;20120;-88
2022/01/09 01:20:36;;;;;;;20.60;9.15;;;0.70;99.90;;;-1.22;100.00;99236.69;4906063;28;20093;-88
2022/01/09 01:23:03;;;;;;;20.17;8.82;;;;;;;-1.21;100.00;99230.63;4970268;28;20029;-88
2022/01/09 01:25:40;;;;;;;23.90;10.20;;;;;;;-1.21;100.00;99238.38;4905672;28;20030;-88
2022/01/09 01:28:06;;;;;;;26.83;9.25;;;0.70;99.90;;;-1.25;100.00;99225.53;4921780;28;20056;-87
2022/01/09 01:33:27;;;;;;;17.55;8.80;;;;;;;-1.26;100.00;99212.66;4962459;28;20222;-89
2022/01/09 01:36:03;;;;;;;16.30;7.65;;;;;;;-1.28;100.00;99217.84;4968592;28;20429;-88
2022/01/09 01:38:30;;;;;;;22.00;8.20;;;;;;;-1.27;100.00;99218.72;4936939;28;20523;-88
2022/01/09 01:40:58;;;;;;;18.77;8.82;;;0.70;99.90;;;-1.32;100.00;99208.50;4943615;28;20108;-88
2022/01/09 01:43:32;;;;;;;21.23;8.40;;;0.60;99.90;;;-1.29;100.00;99207.56;4893888;28;20043;-90
2022/01/09 01:46:57;;;;;;;19.27;8.27;;;0.70;99.90;;;-1.29;100.00;99207.56;4903963;28;20050;-90
2022/01/09 01:49:38;;;;;;;22.13;10.13;;;0.60;99.90;;;-1.31;100.00;99205.03;4899293;28;20113;-90
2022/01/09 01:52:28;;;;;;;18.90;9.40;;;0.60;99.90;;;-1.36;100.00;99191.38;4881507;28;20035;-89
2022/01/09 01:55:01;;;;;;;21.05;9.27;;;;;;;-1.36;100.00;99186.22;4893170;28;20036;-88
2022/01/09 01:58:45;;;;;;;21.58;9.95;;;0.60;99.90;;;-1.39;100.00;99195.75;4896457;28;20126;-88
2022/01/09 02:01:11;;;;;;;22.92;10.13;;;0.60;99.90;;;-1.39;100.00;99185.41;4874599;29;20713;-88
2022/01/09 02:04:06;;;;;;;23.95;11.05;;;0.50;99.90;;;-1.38;100.00;99182.81;4836210;29;20058;-87
2022/01/09 02:06:42;;;;;;;21.10;10.68;;;0.50;99.90;;;-1.34;100.00;99184.44;4802679;29;20127;-87
2022/01/09 02:09:09;;;;;;;27.88;9.45;;;;;;;-1.36;100.00;99177.59;4816522;28;20417;-87
2022/01/09 02:11:35;;;;;;;22.92;9.80;;;0.60;99.90;;;-1.35;100.00;99177.56;4879740;28;20059;-86
2022/01/09 02:14:13;;;;;;;20.38;9.57;;;0.60;99.90;;;-1.32;100.00;99177.50;4878977;28;20050;-86
2022/01/09 02:16:51;;;;;;;20.17;9.18;;;0.60;99.90;;;-1.31;100.00;99158.53;4886502;28;20537;-86
2022/01/09 02:19:21;;;;;;;24.95;9.48;;;0.60;99.90;;;-1.29;100.00;99164.50;4863716;28;20048;-86
2022/01/09 02:21:56;;;;;;;22.85;8.80;;;0.70;99.90;;;-1.23;100.00;99176.44;4901760;28;20436;-86
2022/01/09 02:24:25;;;;;;;22.17;9.23;;;0.70;99.90;;;-1.22;100.00;99172.97;4920955;28;20072;-85
2022/01/09 02:26:56;;;;;;;20.63;9.77;;;0.70;99.90;;;-1.20;100.00;99170.34;4898218;28;20490;-85
2022/01/09 02:29:22;;;;;;;18.30;9.13;;;;;;;-1.18;100.00;99169.44;4892727;28;20151;-85
2022/01/09 02:31:48;;;;;;;17.10;9.38;;;0.70;99.90;;;-1.18;100.00;99163.41;4872802;28;20131;-84
2022/01/09 02:34:15;;;;;;;17.67;9.32;;;;;;;-1.19;100.00;99162.53;4897992;28;20038;-85
2022/01/09 02:36:41;;;;;;;21.67;9.27;;;0.80;99.90;;;-1.16;100.00;99159.91;4904802;28;20033;-85
2022/01/09 02:39:15;;;;;;;20.90;9.40;;;0.70;99.90;;;-1.13;100.00;99152.06;4929367;28;20125;-84
2022/01/09 02:41:41;;;;;;;21.10;9.52;;;0.80;99.90;;;-1.10;100.00;99144.28;4907305;28;20317;-84
2022/01/09 02:44:16;;;;;;;21.13;8.68;;;0.80;99.90;;;-1.14;100.00;99132.31;4904375;28;20026;-84
2022/01/09 02:46:55;;;;;;;14.98;7.47;;;0.70;99.90;;;-1.16;100.00;99125.50;4925106;28;20097;-85
2022/01/09 02:49:21;;;;;;;22.48;9.32;;;;;;;-1.14;100.00;99128.88;4882506;28;21138;-85
2022/01/09 02:51:48;;;;;;;19.45;8.52;;;0.80;99.90;;;-1.17;100.00;99124.63;4923518;28;20068;-84
2022/01/09 02:57:00;;;;;;;24.85;10.00;;;0.80;99.90;;;-1.13;100.00;99126.25;4917228;28;20052;-83
2022/01/09 02:59:27;;;;;;;21.98;8.85;;;0.80;99.90;;;-1.15;100.00;99122.84;4940430;28;20029;-83
2022/01/09 03:01:53;;;;;;;22.48;9.07;;;0.80;99.90;;;-1.12;100.00;99117.63;4898124;28;20447;-83
2022/01/09 03:04:19;;;;;;;17.65;8.38;;;0.70;99.90;;;-1.17;100.00;99110.88;4928963;28;20033;-82
2022/01/09 03:06:45;;;;;;;15.73;7.55;;;0.70;99.90;;;-1.17;100.00;99113.44;4936782;28;21682;-83
2022/01/09 03:09:11;;;;;;;20.05;7.97;;;0.70;99.90;;;-1.19;100.00;99110.06;4878569;28;20464;-83
2022/01/09 03:11:38;;;;;;;16.65;8.50;;;0.70;99.90;;;-1.20;100.00;99113.53;4931457;28;20367;-82
2022/01/09 03:14:11;;;;;;;14.50;7.85;;;0.70;99.90;;;-1.24;100.00;99111.00;4951393;28;20045;-82
2022/01/09 03:16:38;;;;;;;46.20;16.83;;;0.70;99.90;;;-1.24;100.00;99105.00;4900848;28;20030;-82
2022/01/09 03:19:04;;;;;;;15.52;7.57;;;0.70;99.90;;;-1.27;100.00;99105.94;4923364;28;20029;-82
2022/01/09 03:21:35;;;;;;;21.48;8.27;;;0.70;99.90;;;-1.26;100.00;99099.03;4964623;28;20033;-82
2022/01/09 03:24:00;;;;;;;17.83;8.05;;;0.70;99.90;;;-1.31;100.00;99103.47;4945777;28;20051;-82
2022/01/09 03:26:26;;;;;;;13.05;7.55;;;0.60;99.90;;;-1.32;100.00;99099.16;4933419;28;20056;-81
2022/01/09 03:28:52;;;;;;;13.77;6.75;;;0.60;99.90;;;-1.32;100.00;99083.69;4908220;28;20035;-82
2022/01/09 03:31:18;;;;;;;15.80;7.72;;;0.60;99.90;;;-1.35;100.00;99094.94;4900575;28;20114;-82
2022/01/09 03:33:44;;;;;;;14.35;7.38;;;0.60;99.90;;;-1.35;100.00;99083.75;4912572;28;20095;-81
2022/01/09 03:36:18;;;;;;;20.67;8.27;;;0.60;99.90;;;-1.38;100.00;99088.97;4902467;28;20072;-81
2022/01/09 03:38:43;;;;;;;14.77;6.68;;;0.60;99.90;;;-1.37;100.00;99091.53;4921820;28;20032;-81
2022/01/09 03:41:09;;;;;;;16.98;6.63;;;0.50;99.90;;;-1.40;100.00;99090.75;4929029;28;20032;-81
2022/01/09 03:43:35;;;;;;;15.18;7.15;;;0.50;99.90;;;-1.42;100.00;99088.22;4917510;28;20029;-80
2022/01/09 03:46:01;;;;;;;14.23;7.15;;;0.50;99.90;;;-1.45;100.00;99094.31;4924277;28;20074;-81
2022/01/09 03:48:31;;;;;;;15.75;7.30;;;0.50;99.90;;;-1.49;100.00;99081.50;4893684;28;20034;-81
2022/01/09 03:50:57;;;;;;;13.68;6.97;;;0.50;99.90;;;-1.47;100.00;99100.38;4929114;28;20674;-80
2022/01/09 03:53:23;;;;;;;17.60;6.60;;;0.50;99.90;;;-1.50;100.00;99111.63;4995971;28;20553;-81
2022/01/09 03:55:49;;;;;;;20.27;8.02;;;0.40;99.90;;;-1.51;100.00;99109.06;4891912;28;20087;-80
2022/01/09 03:58:15;;;;;;;18.77;7.28;;;0.40;99.90;;;-1.55;100.00;99110.91;4941761;28;20021;-80
2022/01/09 04:00:50;;;;;;;10.48;5.93;;;0.40;99.90;;;-1.56;100.00;99109.19;4917030;28;20014;-81
2022/01/09 04:03:16;;;;;;;17.67;7.75;;;0.30;99.90;;;-1.55;100.00;99110.91;4995094;28;20048;-80
2022/01/09 04:05:42;;;;;;;13.98;5.78;;;0.40;99.90;;;-1.62;100.00;99109.34;4907165;28;20049;-80
2022/01/09 04:08:08;;;;;;;15.77;7.63;;;0.30;99.90;;;-1.60;100.00;99104.13;4941252;28;20037;-80
2022/01/09 04:10:41;;;;;;;16.42;7.68;;;0.30;99.90;;;-1.62;100.00;99114.53;4936044;28;20041;-81
2022/01/09 04:13:10;;;;;;;16.98;7.18;;;0.30;99.90;;;-1.69;100.00;99110.34;4965428;28;20485;-81
2022/01/09 04:15:38;;;;;;;14.02;6.97;;;0.20;99.90;;;-1.69;100.00;99107.78;4946695;28;20087;-81
2022/01/09 04:18:09;;;;;;;14.55;7.00;;;0.20;99.90;;;-1.71;100.00;99107.81;4931069;28;20104;-80
2022/01/09 04:20:35;;;;;;;17.08;8.43;;;0.20;99.90;;;-1.69;100.00;99105.19;4922344;28;20030;-80
2022/01/09 04:23:01;;;;;;;19.08;8.50;;;0.20;99.90;;;-1.68;100.00;99104.34;4950889;28;20046;-81
2022/01/09 04:25:27;;;;;;;17.83;8.18;;;0.20;99.90;;;-1.70;100.00;99100.94;4911337;28;20025;-80
2022/01/09 04:27:53;;;;;;;15.23;7.85;;;0.20;99.90;;;-1.70;100.00;99091.44;4897030;28;20504;-81
2022/01/09 04:30:23;;;;;;;16.08;7.38;;;0.20;99.90;;;-1.71;100.00;99110.38;4903447;28;20031;-80
2022/01/09 04:32:49;;;;;;;21.42;9.32;;;0.20;99.90;;;-1.70;100.00;99094.03;4934131;28;20125;-80
2022/01/09 04:35:15;;;;;;;22.45;8.45;;;0.20;99.90;;;-1.67;100.00;99111.16;4911421;28;20522;-80
2022/01/09 04:37:41;;;;;;;20.45;10.10;;;0.20;99.90;;;-1.68;100.00;99104.34;4935745;28;20053;-81
2022/01/09 04:40:17;;;;;;;22.67;9.55;;;0.20;99.90;;;-1.68;100.00;99101.75;4916915;28;20033;-80
2022/01/09 04:42:47;;;;;;;18.10;8.23;;;0.20;99.90;;;-1.73;100.00;99104.44;4982792;28;20438;-80
2022/01/09 04:45:21;;;;;;;20.42;9.63;;;0.20;99.90;;;-1.70;100.00;99106.94;4954429;28;20103;-80
2022/01/09 04:47:50;;;;;;;19.27;9.88;;;0.20;99.90;;;-1.74;100.00;99065.75;4916419;28;20113;-80
2022/01/09 04:50:27;;;;;;;29.77;9.60;;;0.20;99.90;;;-1.72;100.00;99094.97;4936975;28;20026;-80
2022/01/09 04:53:04;;;;;;;20.13;10.55;;;0.20;99.90;;;-1.71;100.00;99101.81;4901029;28;20029;-80
2022/01/09 04:55:33;;;;;;;14.80;8.35;;;0.20;99.90;;;-1.75;100.00;99098.47;4945270;28;20037;-80
2022/01/09 04:58:00;;;;;;;16.33;7.97;;;0.20;99.90;;;-1.77;100.00;99101.94;4961810;28;20030;-80
2022/01/09 05:00:30;;;;;;;23.92;10.52;;;0.20;99.90;;;-1.73;100.00;99103.56;4970551;28;20021;-80
2022/01/09 05:02:56;;;;;;;26.58;10.45;;;0.10;99.90;;;-1.79;100.00;99098.53;4974196;28;20036;-79
2022/01/09 05:05:24;;;;;;;18.08;10.00;;;0.20;99.90;;;-1.78;100.00;99095.09;4940863;28;20037;-79
2022/01/09 05:07:50;;;;;;;25.42;9.90;;;0.20;99.90;;;-1.77;100.00;99087.31;4936285;28;20034;-79
2022/01/09 05:10:16;;;;;;;24.42;10.48;;;0.20;99.90;;;-1.79;100.00;99086.50;4936043;28;20030;-79
2022/01/09 05:12:42;;;;;;;25.77;10.65;;;0.10;99.90;;;-1.83;100.00;99087.47;4943845;28;20059;-78
2022/01/09 05:15:13;;;;;;;15.88;8.43;;;0.10;99.90;;;-1.85;100.00;99089.22;4934947;28;20030;-79
2022/01/09 05:17:39;;;;;;;21.90;9.57;;;0.10;99.90;;;-1.87;100.00;99090.97;4977490;28;20119;-79
2022/01/09 05:20:07;;;;;;;21.73;10.95;;;0.00;99.90;;;-1.90;100.00;99088.44;4988880;28;20026;-79
2022/01/09 05:22:33;;;;;;;20.17;9.85;;;0.10;99.90;;;-1.91;100.00;99095.34;4948264;28;20037;-79
2022/01/09 05:25:01;;;;;;;19.23;9.93;;;0.10;99.90;;;-1.92;100.00;99088.50;4997765;28;20398;-78
2022/01/09 05:27:29;;;;;;;23.27;10.05;;;0.00;99.90;;;-1.94;100.00;99089.44;4956131;28;20022;-79
2022/01/09 05:29:55;;;;;;;21.08;8.80;;;0.00;99.90;;;-1.94;100.00;99079.97;4917727;28;20036;-78
2022/01/09 05:32:21;;;;;;;18.73;9.50;;;0.00;99.90;;;-2.00;100.00;99080.09;4972992;28;20049;-79
2022/01/09 05:34:47;;;;;;;18.80;9.25;;;0.00;99.90;;;-1.96;100.00;99091.19;4959281;28;20033;-78
2022/01/09 05:37:13;;;;;;;14.02;6.63;;;-0.10;99.90;;;-2.05;100.00;99097.41;4953586;28;20522;-78
2022/01/09 05:39:40;;;;;;;27.02;11.95;;;-0.10;99.90;;;-1.99;100.00;99109.31;4921873;28;20110;-79
2022/01/09 05:42:09;;;;;;;20.15;9.05;;;-0.10;99.90;;;-2.02;100.00;99094.75;4957773;28;20080;-78
2022/01/09 05:44:35;;;;;;;21.25;11.00;;;-0.10;99.90;;;-2.00;100.00;99100.72;4963781;28;20029;-78
2022/01/09 05:47:01;;;;;;;26.73;11.88;;;-0.10;99.90;;;-1.96;100.00;99094.63;4949596;28;20018;-78
2022/01/09 05:49:27;;;;;;;17.50;8.25;;;0.00;99.90;;;-2.00;100.00;99105.88;4950414;28;20042;-78
2022/01/09 05:51:56;;;;;;;12.68;5.63;;;-0.10;99.90;;;-2.04;100.00;99114.56;4948851;28;20025;-78
2022/01/09 05:54:24;;;;;;;22.88;11.05;;;-0.10;99.90;;;-2.01;100.00;99111.06;4942699;28;20132;-78
2022/01/09 05:56:51;;;;;;;21.27;10.13;;;-0.10;99.90;;;-2.01;100.00;99114.47;4931736;28;20029;-79
2022/01/09 05:59:18;;;;;;;23.33;10.80;;;-0.10;99.90;;;-1.98;100.00;99113.59;4988614;28;20030;-78
2022/01/09 06:01:46;;;;;;;21.58;10.20;;;-0.10;99.90;;;-1.96;100.00;99117.00;4963982;28;20055;-78
2022/01/09 06:04:12;;;;;;;22.85;10.80;;;0.00;99.90;;;-1.93;100.00;99122.06;4957500;28;20121;-78
2022/01/09 06:06:40;;;;;;;24.55;11.05;;;0.00;99.90;;;-1.94;100.00;99113.50;4946007;28;20475;-77
2022/01/09 06:09:08;;;;;;;22.70;10.35;;;0.00;99.90;;;-1.92;100.00;99121.22;4976252;28;20108;-78
2022/01/09 06:11:33;;;;;;;21.65;11.15;;;0.00;99.90;;;-1.91;100.00;99108.25;4945205;28;20046;-78
2022/01/09 06:13:59;;;;;;;25.35;11.35;;;0.00;99.90;;;-1.86;100.00;99111.59;4950972;28;20041;-77
2022/01/09 06:16:28;;;;;;;19.58;9.55;;;0.00;99.90;;;-1.86;100.00;99118.47;4975864;28;20402;-77
2022/01/09 06:18:54;;;;;;;26.63;11.02;;;0.10;99.90;;;-1.84;100.00;99121.88;4938283;28;20116;-79
2022/01/09 06:21:19;;;;;;;25.40;11.60;;;0.10;99.90;;;-1.86;100.00;99121.03;4967975;28;20513;-78
2022/01/09 06:23:45;;;;;;;29.75;11.05;;;0.10;99.90;;;-1.81;100.00;99124.41;4978533;28;20422;-77
2022/01/09 06:26:11;;;;;;;25.42;10.52;;;0.10;99.90;;;-1.78;100.00;99120.91;4961320;28;20497;-78
2022/01/09 06:28:37;;;;;;;22.17;11.48;;;0.10;99.90;;;-1.78;100.00;99123.47;4978609;28;20034;-77
2022/01/09 06:31:03;;;;;;;26.92;10.00;;;0.20;99.90;;;-1.76;100.00;99126.88;4976013;28;20029;-78
2022/01/09 06:33:29;;;;;;;25.75;11.07;;;0.20;99.90;;;-1.72;100.00;99131.09;5010706;28;20124;-78
2022/01/09 06:35:55;;;;;;;16.90;7.15;;;0.20;99.90;;;-1.74;100.00;99138.00;4986247;28;20034;-78
2022/01/09 06:38:23;;;;;;;21.45;11.00;;;0.20;99.90;;;-1.75;100.00;99098.47;4957253;28;20034;-77
2022/01/09 06:40:49;;;;;;;28.80;11.68;;;0.20;99.90;;;-1.71;100.00;99132.78;4970341;28;20030;-77
2022/01/09 06:43:15;;;;;;;24.77;10.35;;;0.20;99.90;;;-1.71;100.00;99131.03;4945875;28;20025;-77
2022/01/09 06:45:41;;;;;;;26.25;11.50;;;0.20;99.90;;;-1.70;100.00;99130.16;4945647;28;20030;-78
2022/01/09 06:48:07;;;;;;;27.67;10.85;;;0.20;99.90;;;-1.70;100.00;99134.47;4966671;28;20032;-78
2022/01/09 06:50:32;;;;;;;25.52;11.05;;;0.30;99.90;;;-1.70;100.00;99132.75;4958692;28;20026;-77
2022/01/09 06:53:01;;;;;;;22.70;10.05;;;0.30;99.90;;;-1.69;100.00;99138.75;4975332;28;20029;-78
2022/01/09 06:55:27;;;;;;;23.42;10.77;;;0.30;99.90;;;-1.67;100.00;99134.41;4970857;28;20037;-78
2022/01/09 06:57:54;;;;;;;21.23;10.18;;;0.30;99.90;;;-1.67;100.00;99132.66;4963517;28;20144;-78
2022/01/09 07:00:21;;;;;;;28.05;10.95;;;0.30;99.90;;;-1.66;100.00;99130.94;4921005;28;20027;-79
2022/01/09 07:02:47;;;;;;;28.13;10.05;;;0.30;99.90;;;-1.65;100.00;99138.63;4990859;28;20530;-79
2022/01/09 07:05:17;;;;;;;27.20;10.20;;;0.30;99.90;;;-1.63;100.00;99136.03;4926284;28;20058;-78
2022/01/09 07:07:43;;;;;;;24.40;10.18;;;0.30;99.90;;;-1.61;100.00;99129.09;4918149;28;20025;-79
2022/01/09 07:10:11;;;;;;;19.02;9.32;;;0.30;99.90;;;-1.59;100.00;99126.50;4940939;28;20035;-78
2022/01/09 07:12:37;;;;;;;24.75;10.35;;;0.30;99.90;;;-1.56;100.00;99142.75;4978972;28;20045;-78
2022/01/09 07:15:07;;;;;;;25.75;10.60;;;0.30;99.90;;;-1.55;100.00;99134.13;4947071;28;20518;-78
2022/01/09 07:17:33;;;;;;;19.33;8.07;;;0.30;99.90;;;-1.59;100.00;99129.91;4939141;28;20032;-78
2022/01/09 07:19:59;;;;;;;25.10;9.98;;;0.30;99.90;;;-1.57;100.00;99133.31;4991613;28;20025;-78
2022/01/09 07:22:27;;;;;;;19.27;8.82;;;0.30;99.90;;;-1.57;100.00;99138.47;4974976;28;20061;-78
2022/01/09 07:24:53;;;;;;;28.33;9.88;;;0.30;99.90;;;-1.58;100.00;99149.66;4962420;28;20505;-78
2022/01/09 07:27:19;;;;;;;19.10;8.95;;;0.30;99.90;;;-1.54;100.00;99142.72;4959221;28;20048;-78
2022/01/09 07:29:45;;;;;;;27.30;9.38;;;0.40;99.90;;;-1.54;100.00;99153.88;4971082;28;20029;-78
2022/01/09 07:32:11;;;;;;;25.13;10.02;;;0.40;99.90;;;-1.53;100.00;99140.13;4912560;28;20039;-78
2022/01/09 07:34:37;;;;;;;21.10;9.10;;;0.40;99.90;;;-1.51;100.00;99146.09;4938742;28;20046;-78
2022/01/09 07:37:03;;;;;;;15.90;7.68;;;0.40;99.90;;;-1.47;100.00;99155.47;4938101;28;21116;-79
2022/01/09 07:39:29;;;;;;;14.80;6.30;;;0.40;99.90;;;-1.49;100.00;99146.91;4979056;28;20088;-78
2022/01/09 07:41:57;;;;;;;15.55;7.28;;;0.40;99.90;;;-1.42;100.00;99154.53;5003045;28;20482;-79
2022/01/09 07:44:24;;;;;;;17.50;8.00;;;0.40;99.90;;;-1.37;100.00;99152.66;4952591;28;20104;-79
2022/01/09 07:46:50;;;;;;;17.92;7.95;;;0.50;99.90;;;-1.33;100.00;99149.97;4951172;28;20058;-79
2022/01/09 07:49:16;;;;;;;18.70;8.25;;;0.50;99.90;;;-1.32;100.00;99158.56;4950909;28;20104;-78
2022/01/09 07:51:42;;;;;;;12.70;6.65;;;0.50;99.90;;;-1.29;100.00;99156.78;4924512;28;20088;-79
2022/01/09 07:54:08;;;;;;;17.83;8.00;;;0.50;99.90;;;-1.22;100.00;99154.88;4953363;28;20443;-78
2022/01/09 07:56:34;;;;;;;14.93;7.20;;;0.60;99.90;;;-1.13;100.00;99156.41;4926159;28;20037;-78
2022/01/09 07:58:59;;;;;;;16.70;6.95;;;0.60;99.90;;;-1.10;100.00;99151.16;4952006;28;20038;-78
2022/01/09 08:01:25;;;;;;;17.85;6.75;;;0.70;99.90;;;-1.06;100.00;99157.94;4967839;28;20049;-78
2022/01/09 08:03:51;;;;;;;13.52;6.55;;;0.70;99.90;;;-1.06;100.00;99160.53;4954153;28;20698;-78
2022/01/09 08:06:17;;;;;;;13.85;5.70;;;0.70;99.90;;;-1.04;100.00;99161.34;4993420;28;20060;-79
2022/01/09 08:08:45;;;;;;;19.13;7.88;;;0.70;99.90;;;-0.98;100.00;99162.94;4932212;28;20623;-78
2022/01/09 08:11:11;;;;;;;14.68;6.78;;;0.70;99.90;;;-0.97;100.00;99167.19;4899387;28;20019;-78
2022/01/09 08:13:38;;;;;;;15.80;6.93;;;0.80;99.90;;;-0.89;100.00;99165.28;4935449;28;20394;-78
2022/01/09 08:16:04;;;;;;;20.08;8.05;;;0.80;99.90;;;-0.81;100.00;99167.69;4957684;28;20026;-78
2022/01/09 08:18:30;;;;;;;21.70;8.55;;;0.90;99.90;;;-0.79;100.00;99158.16;4935339;28;20417;-78
2022/01/09 08:20:56;;;;;;;18.52;6.57;;;0.90;99.90;;;-0.77;100.00;99164.16;4973637;28;20496;-78
2022/01/09 08:23:24;;;;;;;18.77;7.15;;;2.00;99.90;;;-0.73;100.00;99169.19;4938162;28;20026;-77
2022/01/09 08:25:50;;;;;;;21.23;8.00;;;1.00;99.90;;;-0.75;99.99;99167.53;4990178;28;20022;-78
2022/01/09 08:28:22;;;;;;;14.52;6.20;;;1.00;99.90;;;-0.86;99.54;99154.88;4921510;28;20045;-78
2022/01/09 08:30:56;;;;;;;18.23;8.55;;;1.00;99.90;;;-0.71;99.82;99164.84;4970302;28;20018;-77
2022/01/09 08:33:27;;;;;;;19.02;8.25;;;1.00;99.90;;;-0.68;99.37;99164.75;4956068;28;20109;-78
2022/01/09 08:35:55;;;;;;;16.48;7.32;;;0.90;99.90;;;-0.80;99.21;99169.38;4950824;28;20033;-79
2022/01/09 08:38:25;;;;;;;23.33;10.02;;;1.00;99.90;;;-0.64;99.49;99170.69;4962172;28;20493;-77
2022/01/09 08:40:51;;;;;;;18.33;8.35;;;1.10;99.90;;;-0.58;99.65;99177.41;4965300;28;20140;-79
2022/01/09 08:43:20;;;;;;;21.13;9.70;;;1.10;99.90;;;-0.55;99.01;99174.78;4953639;28;20485;-78
2022/01/09 08:45:48;;;;;;;16.95;9.05;;;1.00;99.90;;;-0.67;99.08;99171.63;4947523;28;20099;-78
2022/01/09 08:48:18;;;;;;;19.10;8.82;;;1.10;99.90;;;-0.51;99.01;99181.56;4949980;28;20030;-78
2022/01/09 08:50:47;;;;;;;22.00;9.27;;;1.10;99.90;;;-0.53;99.21;99184.19;4921333;28;20030;-78
2022/01/09 08:53:15;;;;;;;20.63;8.82;;;1.10;99.90;;;-0.57;99.42;99176.53;4978390;28;20026;-78
2022/01/09 08:55:41;;;;;;;21.20;9.30;;;1.10;99.90;;;-0.59;99.08;99171.41;4961353;28;20042;-78
2022/01/09 08:58:13;;;;;;;18.77;9.98;;;1.10;99.90;;;-0.52;99.11;99175.56;4926378;28;20108;-78
2022/01/09 09:00:45;;;;;;;18.40;8.82;;;1.20;99.90;;;-0.53;99.27;99188.50;4932042;28;20021;-78
2022/01/09 09:03:11;;;;;;;16.73;7.55;;;1.20;99.90;;;-0.49;99.36;99190.97;4940627;28;20029;-78
2022/01/09 09:05:40;;;;;;;24.52;10.82;;;1.20;99.90;;;-0.42;99.34;99200.25;4957918;28;20034;-78
2022/01/09 09:08:06;;;;;;;33.53;12.80;;;1.30;99.90;;;-0.35;99.42;99198.34;4941114;28;20030;-78
2022/01/09 09:10:32;;;;;;;23.33;12.25;;;1.30;99.90;;;-0.31;99.10;99199.97;4990276;28;20025;-78
2022/01/09 09:13:01;;;;;;;27.75;11.90;;;1.40;99.90;;;-0.31;99.12;99199.13;4962578;28;20049;-78
2022/01/09 09:15:36;;;;;;;25.52;11.00;;;1.40;99.90;;;-0.24;98.91;99201.53;4933646;28;20476;-78
2022/01/09 09:18:08;;;;;;;24.23;11.43;;;1.40;99.90;;;-0.18;98.80;99200.50;4947410;28;20050;-78
2022/01/09 09:20:34;;;;;;;17.55;8.68;;;1.50;99.90;;;-0.21;99.02;99196.25;4947127;28;20026;-78
2022/01/09 09:23:04;;;;;;;30.00;13.43;;;1.50;99.90;;;-0.11;99.23;99208.94;4947658;28;20033;-78
2022/01/09 09:25:33;;;;;;;26.00;11.50;;;1.60;99.90;;;-0.05;98.44;99217.38;4976528;28;20101;-77
2022/01/09 09:27:59;;;;;;;33.97;13.93;;;1.60;99.90;;;0.04;98.76;99210.25;4969428;28;20529;-78
2022/01/09 09:30:28;;;;;;;22.83;11.48;;;1.70;99.90;;;0.09;98.33;99206.66;4945535;28;20030;-78
2022/01/09 09:32:57;;;;;;;31.52;12.85;;;1.70;99.90;;;0.12;98.26;99208.31;4996306;28;20505;-78
2022/01/09 09:35:28;;;;;;;23.70;11.77;;;1.80;99.90;;;0.15;98.20;99214.25;4937295;28;20107;-78
2022/01/09 09:37:54;;;;;;;25.60;12.32;;;1.80;99.90;;;0.12;97.66;99213.47;4937744;28;20027;-78
2022/01/09 09:40:20;;;;;;;32.22;13.57;;;1.80;99.90;;;0.12;97.53;99224.69;4928957;28;20030;-78
2022/01/09 09:42:46;;;;;;;27.52;11.90;;;1.90;99.90;;;0.17;97.48;99225.41;4962989;28;20457;-78
2022/01/09 09:45:16;;;;;;;22.83;11.15;;;1.90;99.90;;;0.29;98.17;99220.78;4948088;28;20025;-78
2022/01/09 09:47:42;;;;;;;27.83;11.70;;;2.00;99.90;;;0.33;97.79;99230.16;4977444;28;20022;-78
2022/01/09 09:50:13;;;;;;;23.17;10.98;;;2.00;99.90;;;0.36;97.39;99228.31;4961525;28;20089;-78
2022/01/09 09:52:47;;;;;;;25.23;11.82;;;2.10;99.90;;;0.41;97.35;99225.59;4952586;28;20069;-78
2022/01/09 09:55:18;;;;;;;23.73;11.07;;;2.10;99.90;;;0.42;97.20;99221.28;4954058;28;20052;-77
2022/01/09 09:57:47;;;;;;;24.48;11.23;;;2.20;99.90;;;0.56;97.03;99230.34;4980368;28;20049;-78
2022/01/09 10:00:17;;;;;;;22.48;10.27;;;2.20;99.90;;;0.60;96.55;99237.13;4970626;28;20033;-78
2022/01/09 10:02:58;;;;;;;25.02;10.98;;;2.30;99.90;;;0.69;96.29;99240.31;4960580;28;20572;-78
2022/01/09 10:05:37;;;;;;;22.15;10.40;;;2.30;99.90;;;0.75;95.95;99227.19;4979684;28;20026;-78
2022/01/09 10:08:19;;;;;;;25.45;11.18;;;2.40;99.90;;;0.76;95.45;99237.50;4970691;28;20104;-78
2022/01/09 10:10:51;;;;;;;26.63;11.32;;;2.40;99.90;;;0.90;95.71;99228.44;4977831;28;20741;-78
2022/01/09 10:13:24;;;;;;;20.85;10.05;;;2.60;99.90;;;1.11;94.84;99247.69;4956781;28;20037;-78
2022/01/09 10:15:57;;;;;;;19.67;9.55;;;2.80;99.90;;;1.21;93.91;99243.91;4956216;28;20068;-79
2022/01/09 10:18:46;;;;;;;20.83;10.88;;;3.00;99.90;;;1.38;93.14;99246.78;4960588;28;20031;-80
2022/01/09 10:21:16;;;;;;;21.30;10.68;;;3.10;99.90;;;1.49;93.20;99245.56;4904949;28;20154;-78
2022/01/09 10:24:13;;;;;;;25.80;10.77;;;3.20;99.90;;;1.44;92.27;99241.38;4944611;28;20021;-78
2022/01/09 10:26:47;;;;;;;24.20;11.07;;;3.20;99.90;;;1.47;91.64;99239.59;4950594;28;20026;-79
2022/01/09 10:29:20;;;;;;;23.35;9.20;;;3.20;99.90;;;1.37;91.62;99236.47;4967401;28;20025;-79
2022/01/09 10:31:57;;;;;;;22.13;9.93;;;3.10;99.90;;;1.29;91.00;99236.69;4961937;28;20033;-77
2022/01/09 10:34:25;;;;;;;23.05;10.25;;;3.10;99.90;;;1.28;91.15;99237.63;4973229;28;20046;-79
2022/01/09 10:36:54;;;;;;;21.00;10.25;;;3.00;99.90;;;1.21;91.26;99239.56;4972815;28;20044;-79